Time;durP1;ratioP1;P1;durP2;ratioP2;P2;SDS_P1;SDS_P2;PMS_P1;PMS_P2;Temp;Humidity;BMP_temperature;BMP_pressure;BME280_temperature;BME280_humidity;BME280_pressure;Samples;Min_cycle;Max_cycle;Signal;HPM_P1;HPM_P2
2021/11/03 00:00:05;;;;;;;;;;;;;;;4.73;100.00;100055.16;5051828;28;19932;-46
2021/11/03 00:02:32;;;;;;;;;;;;;;;4.69;100.00;100056.25;5051832;28;19925;-47
2021/11/03 00:05:00;;;;;;;;;;;;;;;4.67;100.00;100055.50;5054497;28;19933;-43
2021/11/03 00:07:29;;;;;;;;;;;;;;;4.68;100.00;100062.41;5055611;28;19925;-47
2021/11/03 00:09:57;;;;;;;;;;;;;;;4.73;100.00;100065.59;5051757;28;19964;-43
2021/11/03 00:12:24;;;;;;;;;;;;;;;4.69;100.00;100064.91;5052520;28;19931;-44
2021/11/03 00:14:50;;;;;;;;;;;;;;;4.70;100.00;100063.16;5055482;28;19928;-46
2021/11/03 00:17:17;;;;;;;;;;;;;;;4.68;100.00;100062.41;5052164;28;19925;-46
2021/11/03 00:19:44;;;;;;;;;;;;;;;4.62;100.00;100060.09;5050643;28;20395;-45
2021/11/03 00:22:12;;;;;;;;;;;;;;;4.62;100.00;100062.72;5053632;28;19951;-43
2021/11/03 00:24:39;;;;;;;;;;;;;;;4.73;100.00;100060.38;5055301;28;19929;-44
2021/11/03 00:27:06;;;;;;;;;;;;;;;4.67;100.00;100061.53;5052486;28;19925;-45
2021/11/03 00:29:32;;;;;;;;;;;;;;;4.69;100.00;100070.13;5052423;28;19925;-44
2021/11/03 00:31:59;;;;;;;;;;;;;;;4.74;100.00;100062.91;5055418;28;20308;-45
2021/11/03 00:34:26;;;;;;;;;;;;;;;4.70;100.00;100063.16;5053845;28;19925;-44
2021/11/03 00:36:53;;;;;;;;;;;;;;;4.75;100.00;100063.75;5054785;28;20402;-43
2021/11/03 00:39:22;;;;;;;;;;;;;;;4.72;100.00;100058.72;5051190;28;19933;-44
2021/11/03 00:41:50;;;;;;;;;;;;;;;4.67;100.00;100060.72;5053739;28;20019;-44
2021/11/03 00:44:16;;;;;;;;;;;;;;;4.65;100.00;100062.53;5053966;28;20402;-44
2021/11/03 00:46:43;;;;;;;;;;;;;;;4.61;100.00;100061.88;5054980;28;19952;-46
2021/11/03 00:49:10;;;;;;;;;;;;;;;4.64;100.00;100073.91;5054987;28;19928;-44
2021/11/03 00:51:36;;;;;;;;;;;;;;;4.63;100.00;100069.63;5054784;28;19988;-44
2021/11/03 00:54:03;;;;;;;;;;;;;;;4.60;100.00;100068.00;5054832;28;19924;-43
2021/11/03 00:56:30;;;;;;;;;;;;;;;4.67;100.00;100076.34;5052134;28;19975;-49
2021/11/03 00:58:56;;;;;;;;;;;;;;;4.59;100.00;100066.31;5051739;28;19971;-46
2021/11/03 01:01:23;;;;;;;;;;;;;;;4.65;100.00;100073.81;5036542;28;19979;-43
2021/11/03 01:03:50;;;;;;;;;;;;;;;4.54;100.00;100065.72;5054650;28;19925;-47
2021/11/03 01:06:17;;;;;;;;;;;;;;;4.47;100.00;100065.22;5054152;28;19979;-46
2021/11/03 01:08:43;;;;;;;;;;;;;;;4.47;100.00;100061.75;5051881;28;19936;-49
2021/11/03 01:11:10;;;;;;;;;;;;;;;4.38;100.00;100063.09;5052211;28;19925;-48
2021/11/03 01:13:57;;;;;;;;;;;;;;;4.37;100.00;100059.63;5053740;28;20328;-47
2021/11/03 01:16:24;;;;;;;;;;;;;;;4.42;100.00;100067.22;5054316;28;19947;-48
2021/11/03 01:18:53;;;;;;;;;;;;;;;4.34;100.00;100065.00;5054075;28;19970;-52
2021/11/03 01:21:21;;;;;;;;;;;;;;;4.39;100.00;100064.75;5054338;28;19925;-50
2021/11/03 01:23:50;;;;;;;;;;;;;;;4.34;100.00;100061.56;5053071;28;20019;-48
2021/11/03 01:26:16;;;;;;;;;;;;;;;4.29;100.00;100058.34;5053014;28;19928;-50
2021/11/03 01:28:43;;;;;;;;;;;;;;;4.32;100.00;100051.22;5052952;28;19979;-51
2021/11/03 01:31:10;;;;;;;;;;;;;;;4.27;100.00;100054.97;5049787;28;20562;-52
2021/11/03 01:33:37;;;;;;;;;;;;;;;4.19;100.00;100053.59;5050285;28;20335;-54
2021/11/03 01:36:04;;;;;;;;;;;;;;;4.18;100.00;100051.09;5053680;28;19925;-53
2021/11/03 01:38:31;;;;;;;;;;;;;;;4.22;100.00;100055.22;5052098;28;20443;-50
2021/11/03 01:40:58;;;;;;;;;;;;;;;4.21;100.00;100053.53;5053705;28;20009;-53
2021/11/03 01:43:45;;;;;;;;;;;;;;;4.19;100.00;100052.78;5053904;28;19925;-50
2021/11/03 01:46:16;;;;;;;;;;;;;;;4.11;100.00;100052.31;5052801;28;19971;-48
2021/11/03 01:48:43;;;;;;;;;;;;;;;4.06;100.00;100049.94;5052443;28;19925;-49
2021/11/03 01:51:10;;;;;;;;;;;;;;;4.13;100.00;100051.34;5053318;28;19978;-49
2021/11/03 01:53:36;;;;;;;;;;;;;;;4.11;100.00;100047.13;5052138;28;19925;-49
2021/11/03 01:56:05;;;;;;;;;;;;;;;4.05;100.00;100043.91;5050635;28;20338;-52
2021/11/03 01:58:43;;;;;;;;;;;;;;;4.05;100.00;100040.47;5051148;28;19975;-50
2021/11/03 02:01:10;;;;;;;;;;;;;;;4.02;100.00;100044.06;5053469;28;20308;-47
2021/11/03 02:03:37;;;;;;;;;;;;;;;4.10;100.00;100042.81;5053451;28;19971;-52
2021/11/03 02:06:04;;;;;;;;;;;;;;;4.10;100.00;100035.03;5053583;28;20379;-49
2021/11/03 02:08:33;;;;;;;;;;;;;;;3.97;100.00;100029.59;5052285;28;19925;-43
2021/11/03 02:10:59;;;;;;;;;;;;;;;3.95;100.00;100037.47;5053289;28;19936;-49
2021/11/03 02:13:26;;;;;;;;;;;;;;;3.98;100.00;100039.06;5052380;28;19987;-51
2021/11/03 02:15:53;;;;;;;;;;;;;;;3.87;100.00;100032.66;5048981;28;19932;-52
2021/11/03 02:18:20;;;;;;;;;;;;;;;3.89;100.00;100037.78;5051457;28;20418;-52
2021/11/03 02:20:48;;;;;;;;;;;;;;;3.76;100.00;100039.31;5049945;28;19925;-45
2021/11/03 02:23:24;;;;;;;;;;;;;;;3.76;100.00;100032.34;5016673;28;20059;-45
2021/11/03 02:25:57;;;;;;;;;;;;;;;3.77;100.00;100036.63;5053080;28;19924;-47
2021/11/03 02:28:23;;;;;;;;;;;;;;;3.71;100.00;100023.94;5052127;28;19925;-45
2021/11/03 02:30:50;;;;;;;;;;;;;;;3.73;100.00;100024.69;5051933;28;19925;-47
2021/11/03 02:33:18;;;;;;;;;;;;;;;3.64;100.00;100015.59;5053316;28;19929;-45
2021/11/03 02:35:51;;;;;;;;;;;;;;;3.56;100.00;100017.75;5052220;28;20340;-46
2021/11/03 02:38:41;;;;;;;;;;;;;;;3.66;100.00;100020.72;5050257;28;19924;-44
2021/11/03 02:41:12;;;;;;;;;;;;;;;3.65;100.00;100012.06;5049067;28;19940;-53
2021/11/03 02:43:58;;;;;;;;;;;;;;;3.67;100.00;100015.44;5051297;28;20446;-44
2021/11/03 02:46:25;;;;;;;;;;;;;;;3.61;100.00;100007.09;5050859;28;19929;-45
2021/11/03 02:48:51;;;;;;;;;;;;;;;3.57;100.00;100003.81;5031828;28;20310;-51
2021/11/03 02:51:32;;;;;;;;;;;;;;;3.53;100.00;100008.34;5051472;28;19931;-51
2021/11/03 02:54:04;;;;;;;;;;;;;;;3.46;100.00;100004.31;5052816;28;19995;-52
2021/11/03 02:56:32;;;;;;;;;;;;;;;3.40;100.00;100004.66;5052847;28;19928;-51
2021/11/03 02:58:59;;;;;;;;;;;;;;;3.34;100.00;100004.94;5052758;28;19929;-47
2021/11/03 03:01:30;;;;;;;;;;;;;;;3.35;100.00;100004.88;5051418;28;19932;-48
2021/11/03 03:03:56;;;;;;;;;;;;;;;3.30;100.00;100013.78;5052631;28;19924;-45
2021/11/03 03:06:24;;;;;;;;;;;;;;;3.26;100.00;100020.03;5052757;28;19925;-44
2021/11/03 03:08:51;;;;;;;;;;;;;;;3.28;100.00;100023.44;5052682;28;19970;-44
2021/11/03 03:11:19;;;;;;;;;;;;;;;3.22;100.00;100024.56;5051872;28;19928;-45
2021/11/03 03:13:45;;;;;;;;;;;;;;;3.25;100.00;100031.38;5050272;28;19997;-51
2021/11/03 03:16:12;;;;;;;;;;;;;;;3.30;100.00;100030.25;5050802;28;19926;-48
2021/11/03 03:18:39;;;;;;;;;;;;;;;3.23;100.00;100034.03;5052458;28;19956;-49
2021/11/03 03:21:06;;;;;;;;;;;;;;;3.14;100.00;100030.13;5045710;28;19925;-49
2021/11/03 03:23:39;;;;;;;;;;;;;;;3.33;100.00;100024.88;5040217;28;19970;-51
2021/11/03 03:26:06;;;;;;;;;;;;;;;3.32;100.00;100028.41;5034270;28;20320;-50
2021/11/03 03:28:33;;;;;;;;;;;;;;;3.33;100.00;100037.06;5038071;28;20672;-42
2021/11/03 03:31:00;;;;;;;;;;;;;;;3.36;100.00;100024.72;5028531;28;19929;-44
2021/11/03 03:33:27;;;;;;;;;;;;;;;3.50;100.00;100026.66;5037027;28;19924;-45
2021/11/03 03:35:53;;;;;;;;;;;;;;;3.42;100.00;100027.97;5033556;28;19932;-46
2021/11/03 03:38:20;;;;;;;;;;;;;;;3.44;100.00;100036.53;5029295;28;19992;-50
2021/11/03 03:40:47;;;;;;;;;;;;;;;3.49;100.00;100025.00;5029616;28;19976;-50
2021/11/03 03:43:14;;;;;;;;;;;;;;;3.50;100.00;100031.84;5032192;28;20376;-53
2021/11/03 03:45:41;;;;;;;;;;;;;;;3.51;100.00;100033.56;5053759;28;20326;-52
2021/11/03 03:48:08;;;;;;;;;;;;;;;3.61;100.00;100038.31;5036577;28;19978;-49
2021/11/03 03:50:35;;;;;;;;;;;;;;;3.58;100.00;100043.66;5021270;28;20297;-53
2021/11/03 03:53:02;;;;;;;;;;;;;;;3.55;100.00;100053.28;5029095;28;20399;-52
2021/11/03 03:55:28;;;;;;;;;;;;;;;3.53;100.00;100054.28;5032546;28;19929;-49
2021/11/03 03:57:55;;;;;;;;;;;;;;;3.55;100.00;100060.25;5044756;28;19929;-48
2021/11/03 04:00:22;;;;;;;;;;;;;;;3.57;100.00;100053.22;5044597;28;19987;-52
2021/11/03 04:02:51;;;;;;;;;;;;;;;3.64;100.00;100058.97;5040225;28;19925;-49
2021/11/03 04:05:18;;;;;;;;;;;;;;;3.62;100.00;100059.03;5042690;28;19925;-49
2021/11/03 04:07:44;;;;;;;;;;;;;;;3.63;100.00;100052.94;5042571;28;20286;-49
2021/11/03 04:10:12;;;;;;;;;;;;;;;3.64;100.00;100052.00;5035020;28;19971;-49
2021/11/03 04:12:39;;;;;;;;;;;;;;;3.64;100.00;100051.16;5051625;28;20384;-52
2021/11/03 04:15:06;;;;;;;;;;;;;;;3.72;100.00;100052.47;5036220;28;19925;-43
2021/11/03 04:17:33;;;;;;;;;;;;;;;3.80;100.00;100048.66;5041643;28;19925;-45
2021/11/03 04:19:59;;;;;;;;;;;;;;;3.78;100.00;100053.94;5038034;28;19933;-44
2021/11/03 04:22:26;;;;;;;;;;;;;;;3.82;100.00;100047.66;5040576;28;20003;-46
2021/11/03 04:24:53;;;;;;;;;;;;;;;3.82;100.00;100058.06;5037615;28;20004;-46
2021/11/03 04:27:19;;;;;;;;;;;;;;;3.73;100.00;100068.91;5040450;28;19925;-42
2021/11/03 04:29:46;;;;;;;;;;;;;;;3.69;100.00;100065.59;5039278;28;19978;-46
2021/11/03 04:32:12;;;;;;;;;;;;;;;3.64;100.00;100071.97;5047383;28;20315;-49
2021/11/03 04:34:39;;;;;;;;;;;;;;;3.72;100.00;100073.28;5035008;28;19925;-50
2021/11/03 04:37:06;;;;;;;;;;;;;;;3.77;100.00;100069.63;5050571;28;19931;-50
2021/11/03 04:39:33;;;;;;;;;;;;;;;3.76;100.00;100068.75;5054638;28;19928;-50
2021/11/03 04:41:59;;;;;;;;;;;;;;;3.76;100.00;100070.53;5039630;28;20411;-48
2021/11/03 04:44:26;;;;;;;;;;;;;;;3.79;100.00;100068.63;5030496;28;19978;-43
2021/11/03 04:46:53;;;;;;;;;;;;;;;3.83;100.00;100061.50;5042792;28;19975;-51
2021/11/03 04:49:19;;;;;;;;;;;;;;;3.94;100.00;100066.16;5044469;28;19932;-48
2021/11/03 04:51:50;;;;;;;;;;;;;;;3.91;100.00;100068.94;5045398;28;20265;-48
2021/11/03 04:54:16;;;;;;;;;;;;;;;3.85;100.00;100072.69;5053434;28;20392;-45
2021/11/03 04:56:43;;;;;;;;;;;;;;;3.77;100.00;100080.03;5054637;28;20372;-45
2021/11/03 04:59:10;;;;;;;;;;;;;;;3.75;100.00;100080.09;5052175;28;19928;-50
2021/11/03 05:01:37;;;;;;;;;;;;;;;3.78;100.00;100092.13;5050527;28;19929;-49
2021/11/03 05:04:04;;;;;;;;;;;;;;;3.77;100.00;100091.25;5070327;28;20414;-49
2021/11/03 05:06:32;;;;;;;;;;;;;;;3.71;100.00;100092.41;5054505;28;19925;-48
2021/11/03 05:08:59;;;;;;;;;;;;;;;3.63;100.00;100084.13;5069730;28;19924;-50
2021/11/03 05:11:26;;;;;;;;;;;;;;;3.66;100.00;100090.94;5051217;28;19929;-50
2021/11/03 05:13:52;;;;;;;;;;;;;;;3.65;100.00;100090.09;5051480;28;20430;-49
2021/11/03 05:16:20;;;;;;;;;;;;;;;3.60;100.00;100092.09;5054220;28;19932;-50
2021/11/03 05:18:47;;;;;;;;;;;;;;;3.60;100.00;100089.50;5054417;28;19999;-52
2021/11/03 05:21:13;;;;;;;;;;;;;;;3.65;100.00;100089.25;5054470;28;19936;-52
2021/11/03 05:23:41;;;;;;;;;;;;;;;3.68;100.00;100086.50;5054234;28;19978;-45
2021/11/03 05:26:08;;;;;;;;;;;;;;;3.67;100.00;100080.47;5069357;28;19925;-46
2021/11/03 05:28:35;;;;;;;;;;;;;;;3.74;100.00;100081.00;5053561;28;19974;-47
2021/11/03 05:31:02;;;;;;;;;;;;;;;3.75;100.00;100082.69;5052331;28;20334;-47
2021/11/03 05:33:30;;;;;;;;;;;;;;;3.82;100.00;100086.69;5053935;28;19967;-45
2021/11/03 05:35:56;;;;;;;;;;;;;;;3.81;100.00;100082.38;5053591;28;20383;-49
2021/11/03 05:38:23;;;;;;;;;;;;;;;3.82;100.00;100084.06;5050672;28;19924;-46
2021/11/03 05:40:50;;;;;;;;;;;;;;;3.79;100.00;100086.84;5051427;28;20378;-43
2021/11/03 05:43:16;;;;;;;;;;;;;;;3.89;100.00;100092.44;5069016;28;19948;-49
2021/11/03 05:45:43;;;;;;;;;;;;;;;3.95;100.00;100094.72;5053749;28;20672;-48
2021/11/03 05:48:10;;;;;;;;;;;;;;;3.96;100.00;100096.41;5068823;28;19924;-47
2021/11/03 05:50:37;;;;;;;;;;;;;;;3.95;100.00;100092.09;5068694;28;20391;-46
2021/11/03 05:53:04;;;;;;;;;;;;;;;3.86;100.00;100084.78;5053719;28;19932;-49
2021/11/03 05:55:31;;;;;;;;;;;;;;;3.82;100.00;100086.69;5050917;28;19925;-51
2021/11/03 05:57:57;;;;;;;;;;;;;;;3.88;100.00;100093.34;5051137;28;19929;-48
2021/11/03 06:00:28;;;;;;;;;;;;;;;3.78;100.00;100089.50;5053737;28;19975;-51
2021/11/03 06:02:55;;;;;;;;;;;;;;;3.78;100.00;100087.75;5051726;28;20023;-44
2021/11/03 06:05:22;;;;;;;;;;;;;;;3.87;100.00;100089.03;5051116;28;19932;-42
2021/11/03 06:07:59;;;;;;;;;;;;;;;3.84;100.00;100084.00;5052400;28;20396;-45
2021/11/03 06:10:44;;;;;;;;;;;;;;;3.83;100.00;100084.91;5052394;28;20371;-44
2021/11/03 06:13:12;;;;;;;;;;;;;;;3.80;100.00;100083.28;5053352;28;20419;-47
2021/11/03 06:15:39;;;;;;;;;;;;;;;3.83;100.00;100085.78;5053466;28;19925;-45
2021/11/03 06:18:06;;;;;;;;;;;;;;;3.73;100.00;100089.72;5052725;28;19924;-46
2021/11/03 06:20:33;;;;;;;;;;;;;;;3.70;100.00;100092.47;5066214;28;19936;-44
2021/11/03 06:22:59;;;;;;;;;;;;;;;3.61;100.00;100090.31;5049608;28;19932;-46
2021/11/03 06:25:26;;;;;;;;;;;;;;;3.67;100.00;100087.44;5052085;28;20395;-43
2021/11/03 06:27:54;;;;;;;;;;;;;;;3.74;100.00;100081.00;5052093;28;19925;-45
2021/11/03 06:30:22;;;;;;;;;;;;;;;3.76;100.00;100084.38;5050339;28;19925;-45
2021/11/03 06:32:48;;;;;;;;;;;;;;;3.74;100.00;100081.00;5047332;28;20746;-44
2021/11/03 06:35:15;;;;;;;;;;;;;;;3.69;100.00;100082.97;5052185;28;19968;-44
2021/11/03 06:37:44;;;;;;;;;;;;;;;3.74;100.00;100081.00;5067317;28;20295;-44
2021/11/03 06:40:13;;;;;;;;;;;;;;;3.73;100.00;100080.16;5052939;28;19947;-44
2021/11/03 06:42:39;;;;;;;;;;;;;;;3.77;100.00;100088.66;5051497;28;19951;-44
2021/11/03 06:45:07;;;;;;;;;;;;;;;3.66;100.00;100083.13;5052801;28;20323;-44
2021/11/03 06:47:33;;;;;;;;;;;;;;;3.69;100.00;100091.63;5068253;28;19932;-45
2021/11/03 06:50:00;;;;;;;;;;;;;;;3.69;100.00;100086.41;5050222;28;20032;-45
2021/11/03 06:52:28;;;;;;;;;;;;;;;3.75;100.00;100090.50;5049835;28;19951;-43
2021/11/03 06:54:55;;;;;;;;;;;;;;;3.81;100.00;100098.00;5052638;28;20411;-45
2021/11/03 06:57:21;;;;;;;;;;;;;;;3.78;100.00;100092.94;5051108;28;19991;-47
2021/11/03 06:59:48;;;;;;;;;;;;;;;3.85;100.00;100089.13;5050442;28;19967;-46
2021/11/03 07:02:15;;;;;;;;;;;;;;;3.72;100.00;100094.09;5052409;28;19925;-46
2021/11/03 07:04:42;;;;;;;;;;;;;;;3.86;100.00;100101.22;5052733;28;19935;-48
2021/11/03 07:07:09;;;;;;;;;;;;;;;3.81;100.00;100097.16;5068177;28;20291;-49
2021/11/03 07:09:36;;;;;;;;;;;;;;;3.82;100.00;100104.88;5066723;28;19924;-44
2021/11/03 07:12:03;;;;;;;;;;;;;;;3.81;100.00;100105.78;5048553;28;20337;-47
2021/11/03 07:14:29;;;;;;;;;;;;;;;3.74;100.00;100099.22;5051275;28;19924;-44
2021/11/03 07:16:56;;;;;;;;;;;;;;;3.73;100.00;100110.53;5052444;28;20360;-43
2021/11/03 07:19:23;;;;;;;;;;;;;;;3.70;100.00;100103.72;5052530;28;20338;-46
2021/11/03 07:21:49;;;;;;;;;;;;;;;3.67;100.00;100109.06;5052697;28;19950;-43
2021/11/03 07:24:17;;;;;;;;;;;;;;;3.67;100.00;100111.66;5052754;28;20384;-47
2021/11/03 07:26:44;;;;;;;;;;;;;;;3.61;100.00;100111.94;5051270;28;19925;-48
2021/11/03 07:29:11;;;;;;;;;;;;;;;3.62;100.00;100112.81;5036845;28;19925;-45
2021/11/03 07:31:37;;;;;;;;;;;;;;;3.70;100.00;100113.28;5067770;28;19932;-44
2021/11/03 07:34:04;;;;;;;;;;;;;;;3.68;100.00;100120.31;5053954;28;19925;-44
2021/11/03 07:36:32;;;;;;;;;;;;;;;3.76;100.00;100118.19;5056250;28;20023;-44
2021/11/03 07:38:59;;;;;;;;;;;;;;;3.76;100.00;100112.97;5056243;28;19986;-44
2021/11/03 07:41:31;;;;;;;;;;;;;;;3.86;100.00;100110.78;5054730;28;19931;-44
2021/11/03 07:43:58;;;;;;;;;;;;;;;3.81;100.00;100105.78;5068600;28;20293;-45
2021/11/03 07:46:25;;;;;;;;;;;;;;;3.75;100.00;100108.72;5056178;28;19929;-47
2021/11/03 07:48:52;;;;;;;;;;;;;;;3.80;100.00;100108.47;5056045;28;20019;-46
2021/11/03 07:51:19;;;;;;;;;;;;;;;3.79;100.00;100097.25;5056010;28;19998;-44
2021/11/03 07:53:45;;;;;;;;;;;;;;;3.95;100.00;100099.06;5055984;28;20343;-43
2021/11/03 07:56:13;;;;;;;;;;;;;;;3.98;100.00;100094.56;5055784;28;20085;-43
2021/11/03 07:58:40;;;;;;;;;;;;;;;4.09;100.00;100101.84;5053359;28;19955;-44
2021/11/03 08:01:07;;;;;;;;;;;;;;;4.12;100.00;100099.09;5067810;28;19936;-43
2021/11/03 08:03:35;;;;;;;;;;;;;;;4.16;100.00;100100.63;5055708;28;19924;-44
2021/11/03 08:06:02;;;;;;;;;;;;;;;4.13;100.00;100090.38;5071313;28;19935;-44
2021/11/03 08:08:30;;;;;;;;;;;;;;;4.15;100.00;100088.50;5054616;28;19962;-46
2021/11/03 08:10:57;;;;;;;;;;;;;;;4.21;100.00;100083.00;5070687;28;19928;-45
2021/11/03 08:13:26;;;;;;;;;;;;;;;4.16;100.00;100092.81;5070204;28;20022;-44
2021/11/03 08:15:54;;;;;;;;;;;;;;;4.15;100.00;100085.09;5050825;28;19932;-48
2021/11/03 08:18:22;;;;;;;;;;;;;;;4.12;100.00;100091.28;5052113;28;20015;-47
2021/11/03 08:20:49;;;;;;;;;;;;;;;4.17;100.00;100088.44;5053894;28;19928;-44
2021/11/03 08:23:16;;;;;;;;;;;;;;;4.16;100.00;100087.59;5067695;28;19928;-45
2021/11/03 08:25:43;;;;;;;;;;;;;;;4.15;100.00;100087.69;5054917;28;20023;-46
2021/11/03 08:28:10;;;;;;;;;;;;;;;4.22;100.00;100086.44;5055473;28;19978;-46
2021/11/03 08:30:38;;;;;;;;;;;;;;;4.27;100.00;100088.81;5055267;28;19925;-46
2021/11/03 08:33:06;;;;;;;;;;;;;;;4.28;100.00;100096.56;5053811;28;19924;-44
2021/11/03 08:35:34;;;;;;;;;;;;;;;4.37;100.00;100090.03;5067510;28;19982;-49
2021/11/03 08:38:03;;;;;;;;;;;;;;;4.39;100.00;100093.38;5069674;28;19931;-47
2021/11/03 08:40:31;;;;;;;;;;;;;;;4.44;100.00;100098.38;5053096;28;19929;-43
2021/11/03 08:42:59;;;;;;;;;;;;;;;4.54;100.00;100097.81;5070100;28;19978;-48
2021/11/03 08:45:27;;;;;;;;;;;;;;;4.53;100.00;100095.31;5052967;28;20860;-44
2021/11/03 08:47:54;;;;;;;;;;;;;;;4.53;100.00;100095.31;5050689;28;20395;-45
2021/11/03 08:50:22;;;;;;;;;;;;;;;4.56;100.00;100100.34;5053919;28;19925;-46
2021/11/03 08:52:49;;;;;;;;;;;;;;;4.63;100.00;100100.88;5054843;28;19925;-45
2021/11/03 08:55:16;;;;;;;;;;;;;;;4.62;100.00;100107.00;5053601;28;19925;-45
2021/11/03 08:57:42;;;;;;;;;;;;;;;4.74;100.00;100114.16;5054850;28;19975;-49
2021/11/03 09:00:13;;;;;;;;;;;;;;;4.66;100.00;100111.13;5054793;28;19932;-50
2021/11/03 09:02:42;;;;;;;;;;;;;;;4.70;100.00;100112.63;5054616;28;19978;-51
2021/11/03 09:05:09;;;;;;;;;;;;;;;4.76;100.00;100112.34;5054861;28;19939;-51
2021/11/03 09:07:36;;;;;;;;;;;;;;;4.91;100.00;100114.13;5053294;28;19967;-50
2021/11/03 09:10:05;;;;;;;;;;;;;;;4.91;100.00;100121.94;5054672;28;20015;-49
2021/11/03 09:12:32;;;;;;;;;;;;;;;4.95;100.00;100122.63;5054537;28;19925;-51
2021/11/03 09:14:59;;;;;;;;;;;;;;;4.96;100.00;100126.06;5054588;28;19925;-52
2021/11/03 09:17:27;;;;;;;;;;;;;;;5.00;100.00;100127.59;5050813;28;20029;-52
2021/11/03 09:19:54;;;;;;;;;;;;;;;5.08;100.00;100128.00;5051404;28;19928;-51
2021/11/03 09:22:21;;;;;;;;;;;;;;;5.10;100.00;100134.00;5053988;28;19924;-48
2021/11/03 09:24:48;;;;;;;;;;;;;;;5.04;100.00;100139.53;5052914;28;20398;-48
2021/11/03 09:27:15;;;;;;;;;;;;;;;5.07;100.00;100141.97;5054034;28;19979;-48
2021/11/03 09:29:42;;;;;;;;;;;;;;;5.07;100.00;100152.38;5068765;28;19975;-50
2021/11/03 09:32:11;;;;;;;;;;;;;;;5.16;100.00;100148.47;5053854;28;20398;-50
2021/11/03 09:34:39;;;;;;;;;;;;;;;5.21;100.00;100139.47;5057751;28;20284;-52
2021/11/03 09:37:07;;;;;;;;;;;;;;;5.25;100.00;100141.00;5061164;28;19932;-51
2021/11/03 09:39:38;;;;;;;;;;;;;;;5.27;100.00;100145.28;5056629;28;19937;-55
2021/11/03 09:42:05;;;;;;;;;;;;;;;5.36;100.00;100139.56;5040540;28;19925;-54
2021/11/03 09:44:32;;;;;;;;;;;;;;;5.37;100.00;100138.63;5042250;28;19970;-51
2021/11/03 09:47:00;;;;;;;;;;;;;;;5.38;100.00;100148.13;5047421;28;19929;-53
2021/11/03 09:49:31;;;;;;;;;;;;;;;5.49;100.00;100147.56;5036950;28;19979;-57
2021/11/03 09:51:59;;;;;;;;;;;;;;;5.44;100.00;100150.44;5045153;28;20362;-51
2021/11/03 09:54:28;;;;;;;;;;;;;;;5.44;100.00;100147.81;5037976;28;19933;-52
2021/11/03 09:56:56;;;;;;;;;;;;;;;5.45;100.00;100152.09;5031473;28;20380;-52
2021/11/03 09:59:23;;;;;;;;;;;;;;;5.45;100.00;100149.47;5046513;28;20002;-48
2021/11/03 10:02:08;;;;;;;;;;;;;;;5.46;100.00;100145.94;5029961;28;19925;-49
2021/11/03 10:04:40;;;;;;;;;;;;;;;5.48;100.00;100145.88;5032692;28;19987;-49
2021/11/03 10:07:22;;;;;;;;;;;;;;;5.55;100.00;100136.78;5046471;28;19979;-51
2021/11/03 10:09:49;;;;;;;;;;;;;;;5.61;100.00;100140.81;5032783;28;19925;-49
2021/11/03 10:12:17;;;;;;;;;;;;;;;5.62;100.00;100132.06;5032982;28;19975;-51
2021/11/03 10:14:44;;;;;;;;;;;;;;;5.67;100.00;100132.66;5032754;28;20338;-49
2021/11/03 10:17:24;;;;;;;;;;;;;;;5.68;100.00;100143.00;5036936;28;20315;-52
2021/11/03 10:19:51;;;;;;;;;;;;;;;5.79;100.00;100134.56;5056463;28;19947;-46
2021/11/03 10:22:44;;;;;;;;;;;;;;;5.81;100.00;100137.94;5055191;28;20257;-54
2021/11/03 10:25:11;;;;;;;;;;;;;;;5.93;100.00;100139.00;5051617;28;19951;-52
2021/11/03 10:27:43;;;;;;;;;;;;;;;5.95;100.00;100138.94;5051907;28;19925;-51
2021/11/03 10:30:22;;;;;;;;;;;;;;;5.98;100.00;100138.78;5051012;28;19964;-53
2021/11/03 10:32:48;;;;;;;;;;;;;;;6.08;100.00;100139.91;5051705;28;19931;-53
2021/11/03 10:35:20;;;;;;;;;;;;;;;6.14;100.00;100143.97;5039084;28;19929;-54
2021/11/03 10:37:57;;;;;;;;;;;;;;;6.19;100.00;100141.91;5038251;28;19926;-50
2021/11/03 10:40:30;;;;;;;;;;;;;;;6.33;100.00;100141.13;5038437;28;19929;-50
2021/11/03 10:43:02;;;;;;;;;;;;;;;6.33;100.00;100138.53;5035774;28;19929;-53
2021/11/03 10:45:33;;;;;;;;;;;;;;;6.36;100.00;100140.94;5040565;28;19941;-54
2021/11/03 10:48:07;;;;;;;;;;;;;;;6.33;100.00;100136.75;5039345;28;19925;-53
2021/11/03 10:50:48;;;;;;;;;;;;;;;6.39;100.00;100131.16;5014771;28;19931;-48
2021/11/03 10:53:14;;;;;;;;;;;;;;;6.47;100.00;100133.31;5029070;28;19932;-47
2021/11/03 10:55:43;;;;;;;;;;;;;;;6.48;100.00;100132.38;5032349;28;19925;-44
2021/11/03 10:58:12;;;;;;;;;;;;;;;6.62;100.00;100134.16;5032538;28;19932;-46
2021/11/03 11:00:40;;;;;;;;;;;;;;;6.71;100.00;100127.56;5031782;28;19932;-45
2021/11/03 11:03:10;;;;;;;;;;;;;;;6.67;100.00;100131.28;5010995;28;20304;-45
2021/11/03 11:05:38;;;;;;;;;;;;;;;6.72;100.00;100137.91;5035559;28;19932;-51
2021/11/03 11:08:13;;;;;;;;;;;;;;;6.78;100.00;100134.09;5036009;28;20336;-51
2021/11/03 11:10:41;;;;;;;;;;;;;;;6.80;100.00;100129.59;5035633;28;19929;-54
2021/11/03 11:13:28;;;;;;;;;;;;;;;6.83;100.00;100129.44;5032959;28;19929;-54
2021/11/03 11:16:15;;;;;;;;;;;;;;;6.84;100.00;100131.09;5035560;28;19925;-52
2021/11/03 11:19:03;;;;;;;;;;;;;;;6.75;100.00;100119.44;5051992;28;19975;-44
2021/11/03 11:21:35;;;;;;;;;;;;;;;6.67;100.00;100121.66;5034963;28;19925;-46
2021/11/03 11:24:04;;;;;;;;;;;;;;;6.75;100.00;100118.59;5033546;28;19932;-46
2021/11/03 11:26:37;;;;;;;;;;;;;;;6.79;100.00;100117.50;5033154;28;19932;-46
2021/11/03 11:29:13;;;;;;;;;;;;;;;6.79;100.00;100117.50;5035019;28;19925;-45
2021/11/03 11:31:44;;;;;;;;;;;;;;;6.81;100.00;100118.22;5032878;28;19925;-47
2021/11/03 11:34:23;;;;;;;;;;;;;;;6.81;100.00;100115.59;5033096;28;20387;-49
2021/11/03 11:36:57;;;;;;;;;;;;;;;6.89;100.00;100120.38;5036411;28;19979;-50
2021/11/03 11:39:35;;;;;;;;;;;;;;;6.90;100.00;100117.66;5035306;28;19925;-53
2021/11/03 11:42:19;;;;;;;;;;;;;;;6.98;100.00;100122.44;5033852;28;19935;-51
2021/11/03 11:44:45;;;;;;;;;;;;;;;6.96;100.00;100115.63;5032969;28;19925;-51
2021/11/03 11:47:15;;;;;;;;;;;;;;;7.07;100.00;100118.41;5036336;28;20032;-53
2021/11/03 11:49:43;;;;;;;;;;;;;;;7.15;100.00;100115.31;5035042;28;19925;-54
2021/11/03 11:52:19;;;;;;;;;;;;;;;7.17;100.00;100114.28;5034809;28;19925;-47
2021/11/03 11:55:24;;;;;;;;;;;;;;;7.34;100.00;100117.63;5032787;28;20254;-44
2021/11/03 11:58:05;;;;;;;;;;;;;;;7.40;100.00;100109.34;5032213;28;19928;-51
2021/11/03 12:00:33;;;;;;;;;;;;;;;7.43;100.00;100112.63;5033657;28;20410;-51
2021/11/03 12:03:01;;;;;;;;;;;;;;;7.44;100.00;100116.06;5034000;28;20044;-53
2021/11/03 12:05:42;;;;;;;;;;;;;;;7.41;100.00;100108.44;5031748;28;20331;-54
2021/11/03 12:08:08;;;;;;;;;;;;;;;7.51;100.00;100108.69;5034808;28;19929;-54
2021/11/03 12:10:42;;;;;;;;;;;;;;;7.53;100.00;100109.44;5035929;28;19948;-51
2021/11/03 12:13:27;;;;;;;;;;;;;;;7.49;100.00;100100.94;5035348;28;20276;-53
2021/11/03 12:16:11;;;;;;;;;;;;;;;7.45;100.00;100091.59;5034303;28;19960;-50
2021/11/03 12:18:38;;;;;;;;;;;;;;;7.52;100.00;100099.91;5034534;28;19976;-56
2021/11/03 12:21:04;;;;;;;;;;;;;;;7.53;100.00;100088.50;5035760;28;20407;-53
2021/11/03 12:23:38;;;;;;;;;;;;;;;7.60;100.00;100089.78;5034447;28;19925;-52
2021/11/03 12:26:23;;;;;;;;;;;;;;;7.64;100.00;100087.81;5035760;28;19952;-53
2021/11/03 12:28:53;;;;;;;;;;;;;;;7.63;100.00;100086.94;5033940;28;19929;-55
2021/11/03 12:31:21;;;;;;;;;;;;;;;7.64;100.00;100088.63;5031306;28;19975;-54
2021/11/03 12:34:14;;;;;;;;;;;;;;;7.70;100.00;100093.50;5034715;28;19975;-55
2021/11/03 12:36:47;;;;;;;;;;;;;;;7.68;100.00;100094.53;5034686;28;19961;-55
2021/11/03 12:39:29;;;;;;;;;;;;;;;7.71;100.00;100086.47;5034624;28;19936;-53
2021/11/03 12:41:59;;;;;;;;;;;;;;;7.78;100.00;100078.13;5034473;28;19925;-53
2021/11/03 12:44:28;;;;;;;;;;;;;;;7.79;100.00;100089.41;5035120;28;19925;-52